sensor_id;sensor_type;location;lat;lon;timestamp;pressure;altitude;pressure_sealevel;temperature;humidity
77897;BME280;67092;64.282;21.056;2023-05-21T00:01:28;102492.20;;;21.32;30.39
77897;BME280;67092;64.282;21.056;2023-05-21T00:03:53;102487.24;;;21.08;30.89
77897;BME280;67092;64.282;21.056;2023-05-21T00:06:19;102488.62;;;21.34;30.30
77897;BME280;67092;64.282;21.056;2023-05-21T00:08:45;102488.83;;;21.20;30.45
77897;BME280;67092;64.282;21.056;2023-05-21T00:11:10;102487.52;;;21.50;30.07
77897;BME280;67092;64.282;21.056;2023-05-21T00:13:36;102486.05;;;21.30;30.24
77897;BME280;67092;64.282;21.056;2023-05-21T00:16:01;102491.26;;;21.51;30.54
77897;BME280;67092;64.282;21.056;2023-05-21T00:18:27;102491.83;;;21.28;30.54
77897;BME280;67092;64.282;21.056;2023-05-21T00:20:53;102492.29;;;20.63;30.90
77897;BME280;67092;64.282;21.056;2023-05-21T00:23:18;102493.23;;;21.00;30.47
77897;BME280;67092;64.282;21.056;2023-05-21T00:25:44;102494.93;;;21.60;30.03
77897;BME280;67092;64.282;21.056;2023-05-21T00:28:10;102490.94;;;21.32;30.25
77897;BME280;67092;64.282;21.056;2023-05-21T00:30:35;102491.38;;;20.91;30.46
77897;BME280;67092;64.282;21.056;2023-05-21T00:33:01;102491.55;;;21.01;30.02
77897;BME280;67092;64.282;21.056;2023-05-21T00:35:26;102491.82;;;21.38;30.19
77897;BME280;67092;64.282;21.056;2023-05-21T00:37:52;102491.27;;;21.40;29.81
77897;BME280;67092;64.282;21.056;2023-05-21T00:40:18;102490.75;;;21.42;30.28
77897;BME280;67092;64.282;21.056;2023-05-21T00:42:44;102491.36;;;21.35;30.09
77897;BME280;67092;64.282;21.056;2023-05-21T00:45:09;102491.82;;;21.43;29.97
77897;BME280;67092;64.282;21.056;2023-05-21T00:47:35;102493.85;;;21.34;29.77
77897;BME280;67092;64.282;21.056;2023-05-21T00:50:01;102496.43;;;21.02;30.09
77897;BME280;67092;64.282;21.056;2023-05-21T00:52:26;102496.16;;;21.44;29.95
77897;BME280;67092;64.282;21.056;2023-05-21T00:54:52;102492.96;;;21.25;29.79
77897;BME280;67092;64.282;21.056;2023-05-21T00:57:18;102495.23;;;21.50;29.81
77897;BME280;67092;64.282;21.056;2023-05-21T00:59:43;102493.92;;;21.40;29.57
77897;BME280;67092;64.282;21.056;2023-05-21T01:02:08;102488.31;;;21.48;29.99
77897;BME280;67092;64.282;21.056;2023-05-21T01:04:35;102489.98;;;21.58;29.85
77897;BME280;67092;64.282;21.056;2023-05-21T01:06:59;102488.49;;;21.29;29.92
77897;BME280;67092;64.282;21.056;2023-05-21T01:09:25;102486.11;;;21.03;30.40
77897;BME280;67092;64.282;21.056;2023-05-21T01:11:51;102486.27;;;20.56;30.37
77897;BME280;67092;64.282;21.056;2023-05-21T01:14:17;102485.03;;;21.20;30.21
77897;BME280;67092;64.282;21.056;2023-05-21T01:16:44;102484.80;;;20.50;30.36
77897;BME280;67092;64.282;21.056;2023-05-21T01:19:09;102484.14;;;20.77;30.29
77897;BME280;67092;64.282;21.056;2023-05-21T01:21:35;102488.16;;;21.07;30.27
77897;BME280;67092;64.282;21.056;2023-05-21T01:23:59;102486.70;;;20.75;30.26
77897;BME280;67092;64.282;21.056;2023-05-21T01:26:24;102485.82;;;21.37;29.78
77897;BME280;67092;64.282;21.056;2023-05-21T01:28:50;102484.11;;;21.09;30.02
77897;BME280;67092;64.282;21.056;2023-05-21T01:31:22;102482.91;;;20.94;29.88
77897;BME280;67092;64.282;21.056;2023-05-21T01:33:47;102483.02;;;21.01;30.06
77897;BME280;67092;64.282;21.056;2023-05-21T01:36:10;102487.25;;;20.40;30.21
77897;BME280;67092;64.282;21.056;2023-05-21T01:38:39;102483.82;;;20.45;30.39
77897;BME280;67092;64.282;21.056;2023-05-21T01:41:01;102480.55;;;20.86;30.22
77897;BME280;67092;64.282;21.056;2023-05-21T01:43:25;102480.51;;;20.71;30.10
77897;BME280;67092;64.282;21.056;2023-05-21T01:45:53;102480.38;;;20.95;30.01
77897;BME280;67092;64.282;21.056;2023-05-21T01:48:16;102476.22;;;20.49;29.94
77897;BME280;67092;64.282;21.056;2023-05-21T01:50:42;102479.08;;;20.63;30.30
77897;BME280;67092;64.282;21.056;2023-05-21T01:53:06;102481.22;;;21.17;29.77
77897;BME280;67092;64.282;21.056;2023-05-21T01:55:32;102479.61;;;20.68;30.30
77897;BME280;67092;64.282;21.056;2023-05-21T01:57:58;102478.16;;;20.54;30.17
77897;BME280;67092;64.282;21.056;2023-05-21T02:00:25;102476.69;;;20.54;30.39
77897;BME280;67092;64.282;21.056;2023-05-21T02:02:49;102477.90;;;20.78;30.10
77897;BME280;67092;64.282;21.056;2023-05-21T02:05:14;102479.77;;;20.97;30.18
77897;BME280;67092;64.282;21.056;2023-05-21T02:07:40;102478.50;;;20.54;30.35
77897;BME280;67092;64.282;21.056;2023-05-21T02:10:06;102478.97;;;20.39;30.51
77897;BME280;67092;64.282;21.056;2023-05-21T02:12:31;102477.23;;;20.75;29.86
77897;BME280;67092;64.282;21.056;2023-05-21T02:14:57;102479.52;;;20.66;30.21
77897;BME280;67092;64.282;21.056;2023-05-21T02:17:22;102479.77;;;20.56;30.29
77897;BME280;67092;64.282;21.056;2023-05-21T02:19:48;102481.71;;;20.42;30.41
77897;BME280;67092;64.282;21.056;2023-05-21T02:22:13;102479.35;;;20.31;30.56
77897;BME280;67092;64.282;21.056;2023-05-21T02:24:39;102477.42;;;20.67;30.13
77897;BME280;67092;64.282;21.056;2023-05-21T02:27:05;102475.01;;;20.59;30.17
77897;BME280;67092;64.282;21.056;2023-05-21T02:29:30;102473.22;;;20.91;29.83
77897;BME280;67092;64.282;21.056;2023-05-21T02:31:56;102474.31;;;20.37;30.48
77897;BME280;67092;64.282;21.056;2023-05-21T02:34:22;102477.87;;;20.72;30.01
77897;BME280;67092;64.282;21.056;2023-05-21T02:36:47;102478.68;;;20.55;30.16
77897;BME280;67092;64.282;21.056;2023-05-21T02:39:13;102481.50;;;20.79;29.91
77897;BME280;67092;64.282;21.056;2023-05-21T02:41:38;102477.90;;;20.42;30.31
77897;BME280;67092;64.282;21.056;2023-05-21T02:44:04;102479.04;;;20.82;29.89
77897;BME280;67092;64.282;21.056;2023-05-21T02:46:30;102476.62;;;20.30;30.15
77897;BME280;67092;64.282;21.056;2023-05-21T02:48:55;102476.19;;;20.18;30.56
77897;BME280;67092;64.282;21.056;2023-05-21T02:51:21;102473.93;;;20.65;30.04
77897;BME280;67092;64.282;21.056;2023-05-21T02:53:47;102471.90;;;20.41;30.32
77897;BME280;67092;64.282;21.056;2023-05-21T02:56:12;102469.39;;;20.41;30.33
77897;BME280;67092;64.282;21.056;2023-05-21T02:58:38;102470.78;;;20.33;30.46
77897;BME280;67092;64.282;21.056;2023-05-21T03:01:03;102474.13;;;20.55;30.16
77897;BME280;67092;64.282;21.056;2023-05-21T03:03:29;102475.62;;;20.45;30.31
77897;BME280;67092;64.282;21.056;2023-05-21T03:05:55;102469.77;;;20.74;30.00
77897;BME280;67092;64.282;21.056;2023-05-21T03:08:20;102467.16;;;20.49;30.07
77897;BME280;67092;64.282;21.056;2023-05-21T03:10:46;102463.61;;;20.24;30.61
77897;BME280;67092;64.282;21.056;2023-05-21T03:13:11;102463.77;;;20.27;30.62
77897;BME280;67092;64.282;21.056;2023-05-21T03:15:37;102463.24;;;20.28;30.68
77897;BME280;67092;64.282;21.056;2023-05-21T03:18:03;102463.51;;;20.69;30.25
77897;BME280;67092;64.282;21.056;2023-05-21T03:20:28;102462.36;;;20.57;30.41
77897;BME280;67092;64.282;21.056;2023-05-21T03:22:54;102460.44;;;20.44;30.57
77897;BME280;67092;64.282;21.056;2023-05-21T03:25:20;102460.51;;;20.27;30.57
77897;BME280;67092;64.282;21.056;2023-05-21T03:27:45;102460.96;;;20.47;30.62
77897;BME280;67092;64.282;21.056;2023-05-21T03:30:11;102461.24;;;20.82;30.21
77897;BME280;67092;64.282;21.056;2023-05-21T03:32:37;102463.90;;;20.72;30.40
77897;BME280;67092;64.282;21.056;2023-05-21T03:35:02;102460.57;;;20.56;31.02
77897;BME280;67092;64.282;21.056;2023-05-21T03:37:28;102459.57;;;20.30;31.16
77897;BME280;67092;64.282;21.056;2023-05-21T03:39:53;102456.68;;;20.63;30.78
77897;BME280;67092;64.282;21.056;2023-05-21T03:42:19;102455.03;;;20.67;30.65
77897;BME280;67092;64.282;21.056;2023-05-21T03:44:45;102455.29;;;21.02;30.60
77897;BME280;67092;64.282;21.056;2023-05-21T03:47:10;102454.47;;;20.68;30.76
77897;BME280;67092;64.282;21.056;2023-05-21T03:49:36;102453.94;;;20.58;30.84
77897;BME280;67092;64.282;21.056;2023-05-21T03:52:01;102450.68;;;20.98;30.33
77897;BME280;67092;64.282;21.056;2023-05-21T03:54:27;102452.99;;;20.43;30.95
77897;BME280;67092;64.282;21.056;2023-05-21T03:56:53;102453.07;;;20.09;31.42
77897;BME280;67092;64.282;21.056;2023-05-21T03:59:18;102453.75;;;20.37;31.07
77897;BME280;67092;64.282;21.056;2023-05-21T04:01:44;102450.89;;;20.32;30.85
77897;BME280;67092;64.282;21.056;2023-05-21T04:04:09;102449.77;;;20.23;31.28
77897;BME280;67092;64.282;21.056;2023-05-21T04:06:35;102443.97;;;19.86;31.39
77897;BME280;67092;64.282;21.056;2023-05-21T04:09:01;102446.73;;;20.59;30.83
77897;BME280;67092;64.282;21.056;2023-05-21T04:11:26;102444.76;;;20.38;30.80
77897;BME280;67092;64.282;21.056;2023-05-21T04:13:52;102446.96;;;21.11;30.23
77897;BME280;67092;64.282;21.056;2023-05-21T04:16:17;102449.53;;;20.51;31.20
77897;BME280;67092;64.282;21.056;2023-05-21T04:18:43;102452.43;;;20.51;31.01
77897;BME280;67092;64.282;21.056;2023-05-21T04:21:09;102455.35;;;20.37;31.18
77897;BME280;67092;64.282;21.056;2023-05-21T04:23:34;102454.93;;;20.40;31.16
77897;BME280;67092;64.282;21.056;2023-05-21T04:26:00;102454.34;;;20.39;31.18
77897;BME280;67092;64.282;21.056;2023-05-21T04:28:25;102452.61;;;20.36;31.21
77897;BME280;67092;64.282;21.056;2023-05-21T04:30:51;102454.90;;;20.69;30.82
77897;BME280;67092;64.282;21.056;2023-05-21T04:33:17;102460.65;;;20.44;31.09
77897;BME280;67092;64.282;21.056;2023-05-21T04:35:43;102458.32;;;20.56;30.91
77897;BME280;67092;64.282;21.056;2023-05-21T04:38:08;102457.40;;;20.53;30.93
77897;BME280;67092;64.282;21.056;2023-05-21T04:40:34;102460.00;;;20.66;30.79
77897;BME280;67092;64.282;21.056;2023-05-21T04:42:59;102457.59;;;20.34;31.18
77897;BME280;67092;64.282;21.056;2023-05-21T04:45:25;102456.69;;;20.44;30.76
77897;BME280;67092;64.282;21.056;2023-05-21T04:47:50;102455.10;;;20.64;30.81
77897;BME280;67092;64.282;21.056;2023-05-21T04:50:16;102452.59;;;20.44;30.98
77897;BME280;67092;64.282;21.056;2023-05-21T04:52:42;102449.55;;;20.63;30.78
77897;BME280;67092;64.282;21.056;2023-05-21T04:55:08;102449.88;;;20.69;30.65
77897;BME280;67092;64.282;21.056;2023-05-21T04:57:33;102450.82;;;20.44;30.92
77897;BME280;67092;64.282;21.056;2023-05-21T04:59:58;102450.98;;;20.86;30.37
77897;BME280;67092;64.282;21.056;2023-05-21T05:02:24;102452.39;;;20.70;30.58
77897;BME280;67092;64.282;21.056;2023-05-21T05:04:50;102456.10;;;20.35;30.95
77897;BME280;67092;64.282;21.056;2023-05-21T05:07:15;102457.23;;;20.75;30.42
77897;BME280;67092;64.282;21.056;2023-05-21T05:09:42;102453.62;;;21.03;30.08
77897;BME280;67092;64.282;21.056;2023-05-21T05:12:07;102454.20;;;20.07;30.90
77897;BME280;67092;64.282;21.056;2023-05-21T05:14:32;102453.04;;;20.79;30.36
77897;BME280;67092;64.282;21.056;2023-05-21T05:16:58;102460.71;;;20.43;30.73
77897;BME280;67092;64.282;21.056;2023-05-21T05:19:23;102460.34;;;20.47;30.74
77897;BME280;67092;64.282;21.056;2023-05-21T05:21:49;102462.01;;;20.35;30.89
77897;BME280;67092;64.282;21.056;2023-05-21T05:24:15;102460.62;;;20.16;31.03
77897;BME280;67092;64.282;21.056;2023-05-21T05:26:40;102461.47;;;21.04;29.99
77897;BME280;67092;64.282;21.056;2023-05-21T05:29:06;102457.43;;;20.73;30.29
77897;BME280;67092;64.282;21.056;2023-05-21T05:31:31;102458.93;;;20.09;30.78
77897;BME280;67092;64.282;21.056;2023-05-21T05:33:57;102455.01;;;20.27;30.82
77897;BME280;67092;64.282;21.056;2023-05-21T05:36:23;102453.40;;;20.41;30.36
77897;BME280;67092;64.282;21.056;2023-05-21T05:38:48;102455.15;;;20.74;30.51
77897;BME280;67092;64.282;21.056;2023-05-21T05:41:14;102452.43;;;20.44;30.58
77897;BME280;67092;64.282;21.056;2023-05-21T05:43:39;102450.14;;;20.66;30.35
77897;BME280;67092;64.282;21.056;2023-05-21T05:46:05;102451.58;;;20.65;30.08
77897;BME280;67092;64.282;21.056;2023-05-21T05:48:31;102450.85;;;20.52;30.54
77897;BME280;67092;64.282;21.056;2023-05-21T05:50:56;102451.63;;;21.00;30.00
77897;BME280;67092;64.282;21.056;2023-05-21T05:53:22;102447.61;;;20.74;30.34
77897;BME280;67092;64.282;21.056;2023-05-21T05:55:48;102450.50;;;20.17;30.68
77897;BME280;67092;64.282;21.056;2023-05-21T05:58:13;102444.55;;;20.69;30.40
77897;BME280;67092;64.282;21.056;2023-05-21T06:00:39;102446.29;;;20.73;29.82
77897;BME280;67092;64.282;21.056;2023-05-21T06:03:04;102446.90;;;20.54;30.55
77897;BME280;67092;64.282;21.056;2023-05-21T06:05:30;102449.87;;;20.45;30.70
77897;BME280;67092;64.282;21.056;2023-05-21T06:07:56;102451.17;;;20.66;30.49
77897;BME280;67092;64.282;21.056;2023-05-21T06:10:21;102454.60;;;20.50;30.70
77897;BME280;67092;64.282;21.056;2023-05-21T06:12:47;102454.50;;;20.67;30.47
77897;BME280;67092;64.282;21.056;2023-05-21T06:15:13;102454.22;;;20.67;30.49
77897;BME280;67092;64.282;21.056;2023-05-21T06:17:38;102459.78;;;20.32;30.91
77897;BME280;67092;64.282;21.056;2023-05-21T06:20:05;102454.42;;;21.08;30.34
77897;BME280;67092;64.282;21.056;2023-05-21T06:22:29;102459.12;;;20.66;30.60
77897;BME280;67092;64.282;21.056;2023-05-21T06:24:55;102458.66;;;20.44;30.76
77897;BME280;67092;64.282;21.056;2023-05-21T06:27:20;102458.78;;;20.42;30.77
77897;BME280;67092;64.282;21.056;2023-05-21T06:29:46;102457.63;;;20.71;30.47
77897;BME280;67092;64.282;21.056;2023-05-21T06:32:12;102457.68;;;20.88;30.02
77897;BME280;67092;64.282;21.056;2023-05-21T06:34:37;102455.03;;;20.45;30.46
77897;BME280;67092;64.282;21.056;2023-05-21T06:37:03;102452.88;;;20.35;30.86
77897;BME280;67092;64.282;21.056;2023-05-21T06:39:29;102451.67;;;20.96;30.19
77897;BME280;67092;64.282;21.056;2023-05-21T06:41:54;102448.23;;;20.43;30.79
77897;BME280;67092;64.282;21.056;2023-05-21T06:44:20;102448.54;;;21.13;30.29
77897;BME280;67092;64.282;21.056;2023-05-21T06:46:45;102443.81;;;20.46;30.77
77897;BME280;67092;64.282;21.056;2023-05-21T06:49:12;102444.44;;;20.66;30.52
77897;BME280;67092;64.282;21.056;2023-05-21T06:51:37;102443.39;;;20.52;30.64
77897;BME280;67092;64.282;21.056;2023-05-21T06:54:03;102441.74;;;20.32;30.60
77897;BME280;67092;64.282;21.056;2023-05-21T06:56:28;102442.85;;;20.69;30.45
77897;BME280;67092;64.282;21.056;2023-05-21T06:58:54;102447.20;;;20.53;30.67
77897;BME280;67092;64.282;21.056;2023-05-21T07:01:19;102449.64;;;20.53;30.68
77897;BME280;67092;64.282;21.056;2023-05-21T07:03:45;102453.02;;;20.22;31.03
77897;BME280;67092;64.282;21.056;2023-05-21T07:06:10;102451.31;;;20.47;31.06
77897;BME280;67092;64.282;21.056;2023-05-21T07:08:36;102453.36;;;20.25;31.03
77897;BME280;67092;64.282;21.056;2023-05-21T07:11:01;102449.30;;;20.81;30.35
77897;BME280;67092;64.282;21.056;2023-05-21T07:13:28;102451.13;;;20.49;30.69
77897;BME280;67092;64.282;21.056;2023-05-21T07:15:53;102449.71;;;20.51;30.67
77897;BME280;67092;64.282;21.056;2023-05-21T07:18:18;102451.41;;;20.39;30.78
77897;BME280;67092;64.282;21.056;2023-05-21T07:20:44;102449.20;;;20.49;30.70
77897;BME280;67092;64.282;21.056;2023-05-21T07:23:10;102445.91;;;20.28;30.87
77897;BME280;67092;64.282;21.056;2023-05-21T07:25:35;102445.03;;;20.51;30.68
77897;BME280;67092;64.282;21.056;2023-05-21T07:28:01;102441.95;;;20.22;31.01
77897;BME280;67092;64.282;21.056;2023-05-21T07:30:27;102439.17;;;20.27;30.92
77897;BME280;67092;64.282;21.056;2023-05-21T07:32:52;102435.29;;;20.57;30.56
77897;BME280;67092;64.282;21.056;2023-05-21T07:35:18;102435.86;;;20.38;30.81
77897;BME280;67092;64.282;21.056;2023-05-21T07:37:43;102437.98;;;20.16;31.08
77897;BME280;67092;64.282;21.056;2023-05-21T07:40:10;102436.24;;;20.24;30.92
77897;BME280;67092;64.282;21.056;2023-05-21T07:42:34;102432.18;;;20.25;30.93
77897;BME280;67092;64.282;21.056;2023-05-21T07:45:01;102435.08;;;20.34;30.83
77897;BME280;67092;64.282;21.056;2023-05-21T07:47:26;102433.39;;;20.88;30.42
77897;BME280;67092;64.282;21.056;2023-05-21T07:49:51;102432.78;;;20.16;30.68
77897;BME280;67092;64.282;21.056;2023-05-21T07:52:17;102435.75;;;20.21;30.94
77897;BME280;67092;64.282;21.056;2023-05-21T07:54:42;102429.82;;;20.79;30.30
77897;BME280;67092;64.282;21.056;2023-05-21T07:57:08;102436.57;;;20.01;30.89
77897;BME280;67092;64.282;21.056;2023-05-21T07:59:34;102435.83;;;20.23;30.86
77897;BME280;67092;64.282;21.056;2023-05-21T08:01:59;102433.73;;;20.47;30.62
77897;BME280;67092;64.282;21.056;2023-05-21T08:04:25;102433.76;;;20.56;30.58
77897;BME280;67092;64.282;21.056;2023-05-21T08:06:51;102429.89;;;20.39;30.72
77897;BME280;67092;64.282;21.056;2023-05-21T08:09:16;102429.03;;;20.44;30.67
77897;BME280;67092;64.282;21.056;2023-05-21T08:11:41;102425.37;;;20.55;30.56
77897;BME280;67092;64.282;21.056;2023-05-21T08:14:07;102424.59;;;20.40;31.12
77897;BME280;67092;64.282;21.056;2023-05-21T08:16:33;102423.79;;;19.79;31.48
77897;BME280;67092;64.282;21.056;2023-05-21T08:18:59;102422.05;;;20.44;30.73
77897;BME280;67092;64.282;21.056;2023-05-21T08:21:24;102423.41;;;20.20;30.70
77897;BME280;67092;64.282;21.056;2023-05-21T08:23:51;102423.50;;;20.07;30.89
77897;BME280;67092;64.282;21.056;2023-05-21T08:26:15;102423.51;;;20.64;30.54
77897;BME280;67092;64.282;21.056;2023-05-21T08:28:41;102422.83;;;20.90;30.59
77897;BME280;67092;64.282;21.056;2023-05-21T08:31:06;102423.81;;;20.84;30.27
77897;BME280;67092;64.282;21.056;2023-05-21T08:33:33;102419.70;;;20.46;30.98
77897;BME280;67092;64.282;21.056;2023-05-21T08:35:58;102415.96;;;20.49;30.90
77897;BME280;67092;64.282;21.056;2023-05-21T08:38:23;102416.14;;;20.25;30.86
77897;BME280;67092;64.282;21.056;2023-05-21T08:40:50;102414.00;;;20.42;30.78
77897;BME280;67092;64.282;21.056;2023-05-21T08:43:15;102412.38;;;20.76;30.65
77897;BME280;67092;64.282;21.056;2023-05-21T08:45:41;102414.11;;;20.92;30.45
77897;BME280;67092;64.282;21.056;2023-05-21T08:48:08;102417.28;;;21.45;30.01
77897;BME280;67092;64.282;21.056;2023-05-21T08:50:31;102420.12;;;21.13;30.10
77897;BME280;67092;64.282;21.056;2023-05-21T08:52:57;102418.04;;;20.78;30.96
77897;BME280;67092;64.282;21.056;2023-05-21T08:55:23;102421.30;;;21.07;30.65
77897;BME280;67092;64.282;21.056;2023-05-21T08:57:48;102423.09;;;20.83;30.93
77897;BME280;67092;64.282;21.056;2023-05-21T09:00:14;102423.20;;;21.25;30.38
77897;BME280;67092;64.282;21.056;2023-05-21T09:02:39;102425.60;;;21.26;30.41
77897;BME280;67092;64.282;21.056;2023-05-21T09:05:06;102426.05;;;20.84;30.60
77897;BME280;67092;64.282;21.056;2023-05-21T09:07:35;102425.13;;;20.96;30.72
77897;BME280;67092;64.282;21.056;2023-05-21T09:09:59;102423.92;;;20.90;30.55
77897;BME280;67092;64.282;21.056;2023-05-21T09:12:22;102424.81;;;20.94;30.23
77897;BME280;67092;64.282;21.056;2023-05-21T09:14:48;102421.93;;;21.27;30.14
77897;BME280;67092;64.282;21.056;2023-05-21T09:17:13;102417.28;;;21.07;30.54
77897;BME280;67092;64.282;21.056;2023-05-21T09:22:04;102414.45;;;20.78;30.71
77897;BME280;67092;64.282;21.056;2023-05-21T09:24:30;102410.11;;;21.07;30.70
77897;BME280;67092;64.282;21.056;2023-05-21T09:26:56;102409.98;;;20.68;30.85
77897;BME280;67092;64.282;21.056;2023-05-21T09:29:21;102409.70;;;20.92;30.82
77897;BME280;67092;64.282;21.056;2023-05-21T09:31:47;102408.81;;;21.32;30.64
77897;BME280;67092;64.282;21.056;2023-05-21T09:34:12;102412.29;;;21.13;30.86
77897;BME280;67092;64.282;21.056;2023-05-21T09:36:38;102411.76;;;21.24;30.76
77897;BME280;67092;64.282;21.056;2023-05-21T09:39:03;102415.88;;;20.99;30.46
77897;BME280;67092;64.282;21.056;2023-05-21T09:41:33;102413.22;;;20.81;30.71
77897;BME280;67092;64.282;21.056;2023-05-21T09:43:58;102414.84;;;20.86;30.65
77897;BME280;67092;64.282;21.056;2023-05-21T09:46:25;102414.20;;;21.49;30.44
77897;BME280;67092;64.282;21.056;2023-05-21T09:48:46;102411.34;;;21.38;30.55
77897;BME280;67092;64.282;21.056;2023-05-21T09:51:13;102417.54;;;21.29;30.12
77897;BME280;67092;64.282;21.056;2023-05-21T09:53:43;102416.15;;;21.49;30.13
77897;BME280;67092;64.282;21.056;2023-05-21T09:56:03;102421.84;;;21.51;30.17
77897;BME280;67092;64.282;21.056;2023-05-21T09:58:28;102413.23;;;20.91;30.79
77897;BME280;67092;64.282;21.056;2023-05-21T10:00:54;102413.28;;;20.85;30.58
77897;BME280;67092;64.282;21.056;2023-05-21T10:03:22;102410.58;;;21.04;30.61
77897;BME280;67092;64.282;21.056;2023-05-21T10:05:45;102417.18;;;20.99;30.37
77897;BME280;67092;64.282;21.056;2023-05-21T10:08:11;102412.59;;;21.14;30.25
77897;BME280;67092;64.282;21.056;2023-05-21T10:10:37;102413.40;;;21.20;30.16
77897;BME280;67092;64.282;21.056;2023-05-21T10:13:04;102410.10;;;21.22;30.39
77897;BME280;67092;64.282;21.056;2023-05-21T10:15:30;102416.26;;;21.20;30.14
77897;BME280;67092;64.282;21.056;2023-05-21T10:17:54;102412.94;;;20.99;30.44
77897;BME280;67092;64.282;21.056;2023-05-21T10:20:19;102415.47;;;20.97;30.41
77897;BME280;67092;64.282;21.056;2023-05-21T10:22:45;102414.54;;;21.01;30.33
77897;BME280;67092;64.282;21.056;2023-05-21T10:25:12;102413.54;;;21.28;30.28
77897;BME280;67092;64.282;21.056;2023-05-21T10:27:36;102403.76;;;21.40;29.92
77897;BME280;67092;64.282;21.056;2023-05-21T10:30:02;102403.21;;;21.95;29.07
77897;BME280;67092;64.282;21.056;2023-05-21T10:32:27;102402.59;;;21.24;28.83
77897;BME280;67092;64.282;21.056;2023-05-21T10:34:53;102403.37;;;21.49;28.01
77897;BME280;67092;64.282;21.056;2023-05-21T10:37:18;102399.22;;;21.02;28.13
77897;BME280;67092;64.282;21.056;2023-05-21T10:39:43;102398.33;;;20.86;28.16
77897;BME280;67092;64.282;21.056;2023-05-21T10:42:19;102398.23;;;21.01;27.65
77897;BME280;67092;64.282;21.056;2023-05-21T10:44:43;102393.34;;;21.08;27.36
77897;BME280;67092;64.282;21.056;2023-05-21T10:47:12;102391.66;;;21.16;27.05
77897;BME280;67092;64.282;21.056;2023-05-21T10:49:40;102391.24;;;20.88;27.20
77897;BME280;67092;64.282;21.056;2023-05-21T10:52:00;102386.34;;;20.92;27.06
77897;BME280;67092;64.282;21.056;2023-05-21T10:56:51;102391.23;;;20.53;27.41
77897;BME280;67092;64.282;21.056;2023-05-21T10:59:14;102391.40;;;20.68;27.41
77897;BME280;67092;64.282;21.056;2023-05-21T11:01:36;102393.02;;;20.67;27.33
77897;BME280;67092;64.282;21.056;2023-05-21T11:04:00;102388.03;;;20.35;28.01
77897;BME280;67092;64.282;21.056;2023-05-21T11:06:25;102385.97;;;20.70;27.75
77897;BME280;67092;64.282;21.056;2023-05-21T11:08:51;102386.50;;;20.89;27.60
77897;BME280;67092;64.282;21.056;2023-05-21T11:13:47;102387.00;;;20.61;28.13
77897;BME280;67092;64.282;21.056;2023-05-21T11:16:13;102389.24;;;21.00;27.79
77897;BME280;67092;64.282;21.056;2023-05-21T11:21:02;102389.53;;;20.79;28.15
77897;BME280;67092;64.282;21.056;2023-05-21T11:25:59;102385.57;;;21.10;27.95
77897;BME280;67092;64.282;21.056;2023-05-21T11:30:41;102384.60;;;20.80;28.09
77897;BME280;67092;64.282;21.056;2023-05-21T11:33:18;102378.27;;;20.91;27.99
77897;BME280;67092;64.282;21.056;2023-05-21T11:35:35;102375.74;;;21.19;27.96
77897;BME280;67092;64.282;21.056;2023-05-21T11:37:58;102373.62;;;21.26;27.94
77897;BME280;67092;64.282;21.056;2023-05-21T11:40:24;102372.05;;;20.69;28.32
77897;BME280;67092;64.282;21.056;2023-05-21T11:42:51;102373.05;;;21.26;27.77
77897;BME280;67092;64.282;21.056;2023-05-21T11:45:17;102370.31;;;20.99;28.36
77897;BME280;67092;64.282;21.056;2023-05-21T11:47:41;102372.39;;;21.10;28.29
77897;BME280;67092;64.282;21.056;2023-05-21T11:50:11;102375.27;;;20.73;28.19
77897;BME280;67092;64.282;21.056;2023-05-21T11:52:32;102370.09;;;21.03;27.87
77897;BME280;67092;64.282;21.056;2023-05-21T11:54:58;102368.18;;;21.39;27.59
77897;BME280;67092;64.282;21.056;2023-05-21T11:57:25;102368.27;;;21.34;27.87
77897;BME280;67092;64.282;21.056;2023-05-21T11:59:49;102372.51;;;21.54;27.99
77897;BME280;67092;64.282;21.056;2023-05-21T12:02:15;102372.54;;;20.38;28.67
77897;BME280;67092;64.282;21.056;2023-05-21T12:04:40;102378.53;;;20.58;28.46
77897;BME280;67092;64.282;21.056;2023-05-21T12:07:06;102376.65;;;21.05;28.29
77897;BME280;67092;64.282;21.056;2023-05-21T12:11:57;102385.82;;;21.11;27.63
77897;BME280;67092;64.282;21.056;2023-05-21T12:14:22;102388.72;;;21.36;27.39
77897;BME280;67092;64.282;21.056;2023-05-21T12:16:48;102389.68;;;20.96;27.80
77897;BME280;67092;64.282;21.056;2023-05-21T12:19:16;102390.90;;;20.77;27.97
77897;BME280;67092;64.282;21.056;2023-05-21T12:21:41;102390.97;;;20.92;28.06
77897;BME280;67092;64.282;21.056;2023-05-21T12:24:05;102388.94;;;20.92;27.76
77897;BME280;67092;64.282;21.056;2023-05-21T12:26:30;102386.81;;;20.82;27.59
77897;BME280;67092;64.282;21.056;2023-05-21T12:28:56;102383.01;;;20.50;27.88
77897;BME280;67092;64.282;21.056;2023-05-21T12:31:22;102381.55;;;21.02;27.88
77897;BME280;67092;64.282;21.056;2023-05-21T12:33:48;102377.21;;;20.45;28.47
77897;BME280;67092;64.282;21.056;2023-05-21T12:36:21;102376.51;;;20.82;28.07
77897;BME280;67092;64.282;21.056;2023-05-21T12:38:38;102384.44;;;21.01;27.82
77897;BME280;67092;64.282;21.056;2023-05-21T12:41:04;102381.86;;;20.50;28.06
77897;BME280;67092;64.282;21.056;2023-05-21T12:43:30;102381.25;;;21.05;27.96
77897;BME280;67092;64.282;21.056;2023-05-21T12:45:55;102384.61;;;20.68;27.84
77897;BME280;67092;64.282;21.056;2023-05-21T12:48:21;102383.37;;;20.93;27.83